Flight Track Log - Related Links

Times and Time Zones

All times are in EDT time to prevent confusion due to time zone crossing. See the N5253C flight status page for this flight to view local times or setup timezone preferences in your user account.

Time Position Orientation Groundspeed Altitude Reporting Facility
EDT Latitude Longitude Course Direction KTS MPH feet Rate Location/Type
Wed 12:57:00 AM 42.7259 -84.4205 109° East  Level FlightAware Approximate
Wed 12:58:00 AM 42.7192 -84.3933 109° East  Level FlightAware Approximate
Wed 12:58:16 AM 42.6106 -84.3017 125° Southeast 117 135 5,000  Level Cleveland Center
Wed 12:59:00 AM 42.7112 -84.3668 114° Southeast  Level FlightAware Approximate
Wed 12:59:10 AM 42.5950 -84.2697 123° Southeast 117 135 5,000  Level Cleveland Center
Wed 01:00:00 AM 42.7025 -84.3407 114° Southeast  Level FlightAware Approximate
Wed 01:00:11 AM 42.5775 -84.2322 122° Southeast 119 137 5,000  Level Cleveland Center
Wed 01:01:00 AM 42.6939 -84.3146 114° Southeast  Level FlightAware Approximate
Wed 01:01:11 AM 42.5597 -84.1972 125° Southeast 118 136 5,000  Level Cleveland Center
Wed 01:02:00 AM 42.6852 -84.2885 114° Southeast  Level FlightAware Approximate
Wed 01:02:12 AM 42.5444 -84.1569 117° Southeast 117 135 5,000  Level Cleveland Center
Wed 01:03:13 AM 42.5244 -84.1219 128° Southeast 117 135 5,000  Level Cleveland Center
Wed 01:04:13 AM 42.5069 -84.0844 122° Southeast 117 135 5,000  Level Cleveland Center
Wed 01:05:14 AM 42.4894 -84.0467 122° Southeast 116 133 5,000  Level Cleveland Center
Wed 01:06:14 AM 42.4717 -84.0092 123° Southeast 118 136 5,000  Level Cleveland Center
Wed 01:07:15 AM 42.4561 -83.9717 119° Southeast 115 132 5,000  Level Cleveland Center
Wed 01:08:16 AM 42.4553 -83.9267 91° East 116 133 5,000  Level Cleveland Center
Wed 01:09:16 AM 42.4567 -83.8817 88° East 117 135 5,000  Level Cleveland Center
Wed 01:10:17 AM 42.4558 -83.8367 91° East 117 135 5,000  Level Cleveland Center
Wed 01:11:17 AM 42.4550 -83.7914 91° East 117 135 5,000  Level Cleveland Center
Wed 01:12:18 AM 42.4561 -83.7494 88° East 129 148 5,000  Level Cleveland Center
Wed 01:13:19 AM 42.4553 -83.7042 91° East 115 132 5,000  Level Cleveland Center
Wed 01:14:19 AM 42.4567 -83.6594 88° East 117 135 5,000  Level Cleveland Center
Wed 01:15:20 AM 42.4556 -83.6169 92° East 116 133 5,000  Level Cleveland Center
Wed 01:16:20 AM 42.4567 -83.5747 88° East 117 135 5,000  Level Cleveland Center
Wed 01:17:21 AM 42.4578 -83.5328 88° East 112 129 5,000 -246 Level Cleveland Center
Wed 01:18:22 AM 42.4589 -83.4906 88° East 101 116 4,500 -496 Descending Cleveland Center
Wed 01:19:22 AM 42.4556 -83.4539 97° East 98 113 4,000 -248 Descending Cleveland Center
Wed 01:20:23 AM 42.4567 -83.4172 88° East 101 116 4,000  Level Cleveland Center
Wed 01:21:24 AM 42.4514 -83.3747 100° East 106 122 4,000  Level Cleveland Center
Wed 01:22:24 AM 42.4522 -83.3353 88° East 106 122 4,000  Level Cleveland Center
Wed 01:23:25 AM 42.4469 -83.2958 100° East 106 122 4,000  Level Cleveland Center
Wed 01:24:25 AM 42.4417 -83.2589 101° East 109 125 4,000  Level Cleveland Center
Wed 01:25:26 AM 42.4103 -83.2578 179° South 113 130 4,000  Level Cleveland Center
Wed 01:26:27 AM 42.3769 -83.2589 181° South 106 122 4,000 -198 Level Cleveland Center
Wed 01:27:27 AM 42.3517 -83.2747 205° Southwest 117 135 3,600 -496 Descending Cleveland Center
Wed 01:28:28 AM 42.3261 -83.2933 208° Southwest 102 117 3,000 -595 Descending Cleveland Center
Wed 01:29:28 AM 42.3006 -83.3119 208° Southwest 102 117 2,400 -545 Descending Cleveland Center
Wed 01:30:29 AM 42.2772 -83.3306 211° Southwest 106 122 1,900 -541 Descending Cleveland Center
Wed 01:31:30 AM 42.2497 -83.3492 207° Southwest 105 121 1,300 -214 Descending Cleveland Center
Wed 01:34:13 AM 42.1964 -83.3944 212° Southwest 94 108 1,100 -74 Descending Cleveland Center

Login

Don't have an account? Register now (free) for customized features, flight alerts, and more!